San Antonio, Texas
Traffic Map
Current Weather Conditions
San Antonio, Texas
Overcast
Overcast
41°
Feels Like: 34°
Wind Chill: 34° Ceiling: 7000
Heat Index: 41° Visibility: 10mi
Dew Point: 25° Wind: 12mph
Humidity: 53% Direction: 30° (NNE)
Pressure: 30.51in Gusts: 0mph
Raw Report DataKSKF 082358Z AUTO 03010KT 10SM OVC070 05/M04 A3051 RMK AO2 SLP335 T00501038 10073 20050 52025 $
Traffic Incident Summary
Active as of:
Severity:
Category:
InformationThere was an issue retrieving the traffic information for this location. Please try a different location or try again shortly.
Advertisements
Track Severe Weather on mobile